Time;durP1;ratioP1;P1;durP2;ratioP2;P2;SDS_P1;SDS_P2;PMS_P1;PMS_P2;Temp;Humidity;BMP_temperature;BMP_pressure;BME280_temperature;BME280_humidity;BME280_pressure;Samples;Min_cycle;Max_cycle;Signal;HPM_P1;HPM_P2
2023/08/18 00:00:17;;;;;;;20.23;16.27;;;20.10;99.90;;;;;;2508637;23;20565;-73
2023/08/18 00:01:19;;;;;;;22.08;17.88;;;20.10;99.90;;;;;;2508353;23;20006;-74
2023/08/18 00:02:20;;;;;;;21.02;16.98;;;20.10;99.90;;;;;;2507345;23;20176;-74
2023/08/18 00:03:20;;;;;;;20.95;17.92;;;20.10;99.90;;;;;;2507713;23;20003;-74
2023/08/18 00:04:21;;;;;;;25.60;18.60;;;20.00;99.90;;;;;;2507406;23;20006;-74
2023/08/18 00:05:21;;;;;;;25.17;19.30;;;20.00;99.90;;;;;;2507017;23;20033;-74
2023/08/18 00:06:22;;;;;;;25.55;19.23;;;20.10;99.90;;;;;;2507399;23;20073;-74
2023/08/18 00:07:23;;;;;;;24.83;19.30;;;20.00;99.90;;;;;;2507466;23;20013;-74
2023/08/18 00:08:23;;;;;;;26.50;20.00;;;20.10;99.90;;;;;;2507779;23;19999;-74
2023/08/18 00:09:24;;;;;;;27.38;20.45;;;20.00;99.90;;;;;;2507971;23;20014;-74
2023/08/18 00:10:24;;;;;;;26.98;20.25;;;20.00;99.90;;;;;;2508055;23;20007;-74
2023/08/18 00:11:25;;;;;;;24.33;19.83;;;20.00;99.90;;;;;;2507513;23;20027;-74
2023/08/18 00:12:26;;;;;;;25.58;19.55;;;20.00;99.90;;;;;;2501154;23;20336;-74
2023/08/18 00:13:26;;;;;;;26.70;20.75;;;20.00;99.90;;;;;;2494830;23;20009;-74
2023/08/18 00:14:27;;;;;;;25.10;21.83;;;20.00;99.90;;;;;;2494874;23;20004;-74
2023/08/18 00:15:27;;;;;;;26.50;22.92;;;20.00;99.90;;;;;;2482821;23;20019;-73
2023/08/18 00:16:28;;;;;;;27.38;24.48;;;19.90;99.90;;;;;;2496366;23;20003;-73
2023/08/18 00:17:29;;;;;;;30.17;24.42;;;19.90;99.90;;;;;;2495153;23;20010;-73
2023/08/18 00:18:29;;;;;;;27.50;23.67;;;19.90;99.90;;;;;;2495806;23;20011;-73
2023/08/18 00:19:30;;;;;;;30.33;23.88;;;19.80;99.90;;;;;;2496012;23;20011;-74
2023/08/18 00:20:30;;;;;;;30.27;25.08;;;19.80;99.90;;;;;;2495658;23;20034;-73
2023/08/18 00:21:31;;;;;;;31.15;26.60;;;19.80;99.90;;;;;;2495158;23;20090;-73
2023/08/18 00:22:31;;;;;;;28.40;23.35;;;19.80;99.90;;;;;;2494753;23;20003;-73
2023/08/18 00:23:32;;;;;;;27.45;24.55;;;19.70;99.90;;;;;;2495413;23;20479;-74
2023/08/18 00:24:33;;;;;;;29.83;24.50;;;19.70;99.90;;;;;;2494918;23;20098;-73
2023/08/18 00:25:34;;;;;;;28.85;25.75;;;19.70;99.90;;;;;;2494572;23;20007;-74
2023/08/18 00:26:34;;;;;;;27.02;24.20;;;19.70;99.90;;;;;;2495316;23;20030;-73
2023/08/18 00:27:36;;;;;;;27.23;24.30;;;19.70;99.90;;;;;;2496383;23;20007;-73
2023/08/18 00:28:36;;;;;;;27.98;24.95;;;19.70;99.90;;;;;;2496585;23;20009;-74
2023/08/18 00:29:37;;;;;;;29.33;24.73;;;19.70;99.90;;;;;;2496411;23;20014;-74
2023/08/18 00:30:38;;;;;;;28.63;23.05;;;19.70;99.90;;;;;;2496671;23;20006;-74
2023/08/18 00:31:38;;;;;;;25.50;22.20;;;19.70;99.90;;;;;;2496946;23;20003;-74
2023/08/18 00:32:39;;;;;;;26.33;23.52;;;19.70;99.90;;;;;;2494885;23;20045;-74
2023/08/18 00:33:39;;;;;;;26.40;21.92;;;19.70;99.90;;;;;;2494381;23;20026;-74
2023/08/18 00:34:40;;;;;;;28.42;22.67;;;19.60;99.90;;;;;;2494946;23;20007;-74
2023/08/18 00:35:40;;;;;;;26.67;23.13;;;19.60;99.90;;;;;;2495381;23;20015;-74
2023/08/18 00:36:41;;;;;;;27.05;23.23;;;19.60;99.90;;;;;;2494863;23;20071;-74
2023/08/18 00:37:42;;;;;;;27.80;23.05;;;19.60;99.90;;;;;;2495865;23;20011;-74
2023/08/18 00:38:43;;;;;;;27.58;22.42;;;19.60;99.90;;;;;;2494248;23;20047;-74
2023/08/18 00:39:43;;;;;;;27.02;22.13;;;19.60;99.90;;;;;;2495183;23;20003;-74
2023/08/18 00:40:44;;;;;;;25.38;21.25;;;19.60;99.90;;;;;;2494413;23;20357;-74
2023/08/18 00:41:44;;;;;;;27.75;23.08;;;19.60;99.90;;;;;;2495806;23;20007;-74
2023/08/18 00:42:46;;;;;;;30.35;23.35;;;19.60;99.90;;;;;;2494465;23;20498;-74
2023/08/18 00:43:47;;;;;;;29.92;24.10;;;19.60;99.90;;;;;;2495691;23;20030;-73
2023/08/18 00:44:47;;;;;;;29.15;24.48;;;19.50;99.90;;;;;;2494635;23;20037;-74
2023/08/18 00:45:49;;;;;;;30.52;23.27;;;19.50;99.90;;;;;;2494045;23;20094;-73
2023/08/18 00:46:50;;;;;;;29.75;22.67;;;19.50;99.90;;;;;;2495590;23;20034;-74
2023/08/18 00:47:51;;;;;;;26.90;22.63;;;19.60;99.90;;;;;;2497000;23;20014;-73
2023/08/18 00:48:52;;;;;;;28.70;21.95;;;19.50;99.90;;;;;;2495590;23;20007;-74
2023/08/18 00:49:54;;;;;;;28.25;21.60;;;19.50;99.90;;;;;;2496398;23;20008;-73
2023/08/18 00:50:56;;;;;;;29.77;23.58;;;19.50;99.90;;;;;;2496055;23;20007;-74
2023/08/18 00:51:57;;;;;;;27.23;22.48;;;19.50;99.90;;;;;;2495516;23;20432;-74
2023/08/18 00:52:59;;;;;;;26.48;21.73;;;19.50;99.90;;;;;;2493989;23;20324;-73
2023/08/18 00:54:00;;;;;;;27.00;22.15;;;19.50;99.90;;;;;;2495612;23;20044;-73
2023/08/18 00:55:01;;;;;;;29.38;22.55;;;19.50;99.90;;;;;;2494924;23;20423;-74
2023/08/18 00:56:03;;;;;;;28.33;23.60;;;19.50;99.90;;;;;;2495352;23;20003;-73
2023/08/18 00:57:03;;;;;;;26.77;23.33;;;19.50;99.90;;;;;;2495948;23;20011;-74
2023/08/18 00:58:04;;;;;;;26.48;22.75;;;19.50;99.90;;;;;;2496112;23;20009;-73
2023/08/18 00:59:05;;;;;;;28.25;22.45;;;19.50;99.90;;;;;;2496022;23;20365;-74
2023/08/18 01:00:07;;;;;;;30.10;23.02;;;19.50;99.90;;;;;;2496546;23;20007;-74
2023/08/18 01:01:07;;;;;;;27.70;21.73;;;19.50;99.90;;;;;;2494867;23;20013;-74
2023/08/18 01:02:08;;;;;;;26.60;22.88;;;19.50;99.90;;;;;;2495248;23;20078;-74
2023/08/18 01:03:09;;;;;;;25.50;22.75;;;19.50;99.90;;;;;;2493883;23;20003;-73
2023/08/18 01:04:12;;;;;;;28.23;21.88;;;19.50;99.90;;;;;;2494695;23;20011;-74
2023/08/18 01:05:12;;;;;;;27.65;22.77;;;19.50;99.90;;;;;;2494964;23;20003;-74
2023/08/18 01:06:13;;;;;;;27.95;22.75;;;19.50;99.90;;;;;;2495065;23;20051;-73
2023/08/18 01:07:14;;;;;;;25.20;22.25;;;19.50;99.90;;;;;;2496140;23;20009;-74
2023/08/18 01:08:14;;;;;;;26.98;22.88;;;19.50;99.90;;;;;;2496395;23;20011;-74
2023/08/18 01:09:15;;;;;;;29.60;23.67;;;19.50;99.90;;;;;;2495361;23;20007;-74
2023/08/18 01:10:15;;;;;;;28.55;21.55;;;19.50;99.90;;;;;;2495474;23;20404;-74
2023/08/18 01:11:27;;;;;;;27.30;21.52;;;19.50;99.90;;;;;;2495192;23;20429;-74
2023/08/18 01:12:27;;;;;;;28.48;22.05;;;19.50;99.90;;;;;;2494419;23;20110;-74
2023/08/18 01:13:47;;;;;;;27.23;22.55;;;19.50;99.90;;;;;;2495248;23;20011;-73
2023/08/18 01:14:53;;;;;;;28.90;23.33;;;19.50;99.90;;;;;;2495109;23;20506;-74
2023/08/18 01:15:57;;;;;;;27.73;21.70;;;19.50;99.90;;;;;;2495430;23;20758;-74
2023/08/18 01:17:06;;;;;;;30.55;22.33;;;19.50;99.90;;;;;;2495717;23;20052;-74
2023/08/18 01:18:10;;;;;;;25.67;21.08;;;19.50;99.90;;;;;;2495239;23;20003;-74
2023/08/18 01:19:14;;;;;;;29.05;22.92;;;19.50;99.90;;;;;;2494784;23;20003;-73
2023/08/18 01:20:16;;;;;;;25.65;20.95;;;19.50;99.90;;;;;;2495240;23;20003;-74
2023/08/18 01:21:17;;;;;;;25.58;21.00;;;19.50;99.90;;;;;;2495029;23;20007;-73
2023/08/18 01:22:19;;;;;;;28.17;22.08;;;19.50;99.90;;;;;;2495066;23;19996;-74
2023/08/18 01:23:19;;;;;;;28.73;21.30;;;19.50;99.90;;;;;;2495590;23;20071;-74
2023/08/18 01:24:24;;;;;;;26.52;21.20;;;19.50;99.90;;;;;;2494520;23;20063;-73
2023/08/18 01:25:25;;;;;;;28.83;20.45;;;19.60;99.90;;;;;;2483761;23;20051;-74
2023/08/18 01:26:26;;;;;;;25.55;20.17;;;19.60;99.90;;;;;;2496552;23;20011;-73
2023/08/18 01:27:30;;;;;;;24.33;20.75;;;19.50;99.90;;;;;;2494539;23;20000;-74
2023/08/18 01:28:31;;;;;;;27.23;20.98;;;19.60;99.90;;;;;;2494455;23;20007;-74
2023/08/18 01:29:32;;;;;;;23.95;20.30;;;19.50;99.90;;;;;;2495389;23;20003;-74
2023/08/18 01:30:48;;;;;;;25.50;19.90;;;19.60;99.90;;;;;;2494418;23;20459;-74
2023/08/18 01:31:54;;;;;;;24.02;19.45;;;19.60;99.90;;;;;;2495157;23;20110;-74
2023/08/18 01:33:08;;;;;;;21.52;18.15;;;19.60;99.90;;;;;;2494885;23;20074;-74
2023/08/18 01:34:15;;;;;;;23.25;19.65;;;19.60;99.90;;;;;;2482172;23;20004;-74
2023/08/18 01:35:17;;;;;;;25.35;20.25;;;19.60;99.90;;;;;;2483426;23;20015;-74
2023/08/18 01:36:21;;;;;;;24.90;18.52;;;19.60;99.90;;;;;;2495907;23;20015;-74
2023/08/18 01:37:22;;;;;;;25.38;20.17;;;19.60;99.90;;;;;;2496320;23;20082;-74
2023/08/18 01:38:24;;;;;;;27.45;19.90;;;19.60;99.90;;;;;;2483132;23;20012;-73
2023/08/18 01:39:26;;;;;;;29.02;20.25;;;19.60;99.90;;;;;;2484001;23;20015;-74
2023/08/18 01:40:29;;;;;;;23.30;18.27;;;19.60;99.90;;;;;;2494620;23;20072;-74
2023/08/18 01:41:31;;;;;;;28.63;18.27;;;19.60;99.90;;;;;;2494926;23;20019;-74
2023/08/18 01:42:32;;;;;;;24.48;19.45;;;19.60;99.90;;;;;;2494424;23;20007;-74
2023/08/18 01:43:33;;;;;;;27.10;19.58;;;19.60;99.90;;;;;;2495225;23;20013;-74
2023/08/18 01:44:34;;;;;;;18.75;15.90;;;19.60;99.90;;;;;;2494429;23;20458;-74
2023/08/18 01:45:36;;;;;;;25.23;18.67;;;19.70;99.90;;;;;;2494357;23;20113;-74
2023/08/18 01:46:36;;;;;;;22.23;18.95;;;19.70;99.90;;;;;;2494123;23;20499;-74
2023/08/18 01:47:38;;;;;;;22.50;19.45;;;19.70;99.90;;;;;;2495144;23;20449;-74
2023/08/18 01:48:38;;;;;;;24.15;20.15;;;19.70;99.90;;;;;;2495862;23;20078;-74
2023/08/18 01:49:39;;;;;;;23.75;18.88;;;19.70;99.90;;;;;;2495658;23;20010;-74
2023/08/18 01:50:39;;;;;;;24.40;19.65;;;19.70;99.90;;;;;;2495860;23;20007;-73
2023/08/18 01:51:40;;;;;;;26.67;20.73;;;19.70;99.90;;;;;;2495469;23;20022;-74
2023/08/18 01:52:41;;;;;;;25.08;20.65;;;19.70;99.90;;;;;;2495723;23;20014;-74
2023/08/18 01:53:41;;;;;;;23.15;20.45;;;19.70;99.90;;;;;;2495668;23;20007;-74
2023/08/18 01:54:42;;;;;;;27.55;21.48;;;19.70;99.90;;;;;;2495993;23;20003;-74
2023/08/18 01:55:43;;;;;;;26.70;21.10;;;19.70;99.90;;;;;;2496296;23;20011;-74
2023/08/18 01:56:43;;;;;;;26.25;20.88;;;19.70;99.90;;;;;;2494387;23;20014;-74
2023/08/18 01:57:44;;;;;;;27.20;21.38;;;19.70;99.90;;;;;;2496121;23;20340;-73
2023/08/18 01:58:44;;;;;;;28.98;21.58;;;19.60;99.90;;;;;;2493729;23;20054;-74
2023/08/18 01:59:45;;;;;;;24.40;20.98;;;19.60;99.90;;;;;;2495399;23;20347;-74
2023/08/18 02:00:45;;;;;;;29.27;22.23;;;19.60;99.90;;;;;;2495644;23;20098;-73
2023/08/18 02:01:46;;;;;;;26.63;22.25;;;19.60;99.90;;;;;;2496012;23;20014;-74
2023/08/18 02:02:47;;;;;;;27.40;21.42;;;19.60;99.90;;;;;;2493806;23;20042;-73
2023/08/18 02:03:48;;;;;;;27.65;22.48;;;19.60;99.90;;;;;;2495648;23;20439;-74
2023/08/18 02:04:48;;;;;;;27.50;22.30;;;19.60;99.90;;;;;;2493935;23;20004;-74
2023/08/18 02:05:52;;;;;;;28.67;23.00;;;19.60;99.90;;;;;;2495487;23;20067;-74
2023/08/18 02:06:53;;;;;;;27.23;21.45;;;19.60;99.90;;;;;;2495484;23;20029;-74
2023/08/18 02:07:54;;;;;;;27.15;22.30;;;19.60;99.90;;;;;;2495066;23;20007;-73
2023/08/18 02:08:54;;;;;;;26.25;20.83;;;19.60;99.90;;;;;;2494454;23;20516;-74
2023/08/18 02:09:55;;;;;;;26.38;22.65;;;19.60;99.90;;;;;;2494753;23;20305;-74
2023/08/18 02:11:03;;;;;;;24.50;21.73;;;19.60;99.90;;;;;;2495058;23;20007;-74
2023/08/18 02:12:04;;;;;;;26.13;21.67;;;19.60;99.90;;;;;;2494118;23;20067;-74
2023/08/18 02:13:05;;;;;;;30.33;22.88;;;19.60;99.90;;;;;;2495016;23;19999;-74
2023/08/18 02:14:06;;;;;;;30.95;25.38;;;19.60;99.90;;;;;;2494097;23;20021;-74
2023/08/18 02:15:07;;;;;;;29.95;22.65;;;19.60;99.90;;;;;;2494167;23;20015;-73
2023/08/18 02:16:07;;;;;;;30.67;24.05;;;19.60;99.90;;;;;;2494794;23;20691;-74
2023/08/18 02:17:08;;;;;;;31.90;25.27;;;19.60;99.90;;;;;;2493933;23;20007;-74
2023/08/18 02:18:08;;;;;;;28.27;24.10;;;19.60;99.90;;;;;;2495735;23;20008;-74
2023/08/18 02:19:09;;;;;;;31.02;25.20;;;19.60;99.90;;;;;;2494457;23;20018;-74
2023/08/18 02:20:10;;;;;;;33.92;25.95;;;19.60;99.90;;;;;;2494399;23;20424;-74
2023/08/18 02:21:10;;;;;;;34.65;27.88;;;19.60;99.90;;;;;;2496023;23;20034;-74
2023/08/18 02:22:11;;;;;;;35.00;26.45;;;19.60;99.90;;;;;;2492742;23;20106;-74
2023/08/18 02:23:11;;;;;;;35.88;28.00;;;19.60;99.90;;;;;;2493834;23;20328;-73
2023/08/18 02:24:12;;;;;;;38.60;28.73;;;19.60;99.90;;;;;;2494566;23;20007;-74
2023/08/18 02:25:13;;;;;;;36.53;29.00;;;19.60;99.90;;;;;;2494285;23;20058;-74
2023/08/18 02:26:14;;;;;;;42.28;30.02;;;19.50;99.90;;;;;;2494571;23;20003;-73
2023/08/18 02:27:14;;;;;;;38.72;28.13;;;19.50;99.90;;;;;;2493903;23;20504;-73
2023/08/18 02:28:17;;;;;;;38.00;31.10;;;19.50;99.90;;;;;;2495625;23;20479;-73
2023/08/18 02:29:18;;;;;;;33.03;27.27;;;19.50;99.90;;;;;;2493760;23;20014;-73
2023/08/18 02:30:18;;;;;;;36.58;28.48;;;19.50;99.90;;;;;;2494178;23;20018;-74
2023/08/18 02:31:19;;;;;;;37.17;29.98;;;19.50;99.90;;;;;;2495412;23;20039;-73
2023/08/18 02:32:20;;;;;;;42.38;32.58;;;19.50;99.90;;;;;;2493571;23;21022;-74
2023/08/18 02:33:20;;;;;;;42.35;31.65;;;19.50;99.90;;;;;;2494487;23;20082;-74
2023/08/18 02:34:21;;;;;;;40.80;32.15;;;19.50;99.90;;;;;;2493841;23;20011;-73
2023/08/18 02:35:22;;;;;;;44.88;33.33;;;19.50;99.90;;;;;;2495043;23;20015;-74
2023/08/18 02:36:22;;;;;;;42.40;33.80;;;19.50;99.90;;;;;;2494111;23;20004;-74
2023/08/18 02:37:23;;;;;;;39.05;31.85;;;19.50;99.90;;;;;;2494114;23;20014;-73
2023/08/18 02:38:23;;;;;;;40.38;32.08;;;19.50;99.90;;;;;;2494572;23;20011;-74
2023/08/18 02:39:24;;;;;;;43.95;33.17;;;19.50;99.90;;;;;;2494614;23;20424;-74
2023/08/18 02:40:24;;;;;;;40.58;32.80;;;19.50;99.90;;;;;;2494620;23;20008;-74
2023/08/18 02:41:25;;;;;;;45.55;34.22;;;19.50;99.90;;;;;;2495968;23;20010;-74
2023/08/18 02:42:25;;;;;;;42.80;32.45;;;19.50;99.90;;;;;;2494149;23;20086;-73
2023/08/18 02:43:26;;;;;;;46.63;35.40;;;19.50;99.90;;;;;;2496075;23;20168;-74
2023/08/18 02:44:26;;;;;;;45.63;33.83;;;19.50;99.90;;;;;;2495425;23;20000;-74
2023/08/18 02:45:27;;;;;;;43.95;33.78;;;19.50;99.90;;;;;;2495804;23;20034;-74
2023/08/18 02:46:27;;;;;;;43.28;33.45;;;19.50;99.90;;;;;;2495433;23;20027;-73
2023/08/18 02:47:28;;;;;;;45.30;34.70;;;19.50;99.90;;;;;;2495231;23;20007;-74
2023/08/18 02:48:29;;;;;;;46.30;34.40;;;19.50;99.90;;;;;;2494920;23;20010;-74
2023/08/18 02:49:30;;;;;;;44.95;33.50;;;19.50;99.90;;;;;;2493692;23;20011;-74
2023/08/18 02:50:30;;;;;;;42.58;33.95;;;19.50;99.90;;;;;;2482558;23;20015;-73
2023/08/18 02:51:31;;;;;;;43.05;32.25;;;19.50;99.90;;;;;;2481445;23;20420;-73
2023/08/18 02:52:32;;;;;;;42.15;32.17;;;19.50;99.90;;;;;;2493661;23;20007;-73
2023/08/18 02:53:33;;;;;;;42.63;33.95;;;19.50;99.90;;;;;;2494543;23;20003;-74
2023/08/18 02:54:33;;;;;;;43.58;33.13;;;19.50;99.90;;;;;;2494733;23;20066;-74
2023/08/18 02:55:34;;;;;;;43.50;32.00;;;19.50;99.90;;;;;;2494012;23;20090;-74
2023/08/18 02:56:34;;;;;;;44.50;33.28;;;19.50;99.90;;;;;;2494318;23;20047;-74
2023/08/18 02:57:35;;;;;;;39.58;31.75;;;19.50;99.90;;;;;;2494274;23;20039;-74
2023/08/18 02:58:36;;;;;;;41.10;30.40;;;19.50;99.90;;;;;;2494744;23;20441;-74
2023/08/18 02:59:38;;;;;;;40.90;30.88;;;19.50;99.90;;;;;;2494945;23;20031;-74
2023/08/18 03:00:38;;;;;;;42.00;31.48;;;19.50;99.90;;;;;;2495197;23;20003;-74
2023/08/18 03:01:39;;;;;;;41.97;31.45;;;19.50;99.90;;;;;;2494684;23;20010;-74
2023/08/18 03:02:39;;;;;;;40.58;30.70;;;19.50;99.90;;;;;;2493798;23;20014;-74
2023/08/18 03:03:40;;;;;;;41.47;31.65;;;19.50;99.90;;;;;;2493613;23;20047;-74
2023/08/18 03:04:40;;;;;;;37.22;28.83;;;19.50;99.90;;;;;;2482484;23;20011;-73
2023/08/18 03:05:41;;;;;;;39.08;30.00;;;19.50;99.90;;;;;;2494562;23;19999;-74
2023/08/18 03:06:41;;;;;;;41.03;32.03;;;19.50;99.90;;;;;;2494302;23;20108;-73
2023/08/18 03:07:42;;;;;;;38.85;30.58;;;19.50;99.90;;;;;;2494799;23;20003;-74
2023/08/18 03:08:42;;;;;;;39.10;30.80;;;19.50;99.90;;;;;;2494664;23;20447;-74
2023/08/18 03:09:43;;;;;;;38.30;30.23;;;19.50;99.90;;;;;;2495129;23;20004;-74
2023/08/18 03:10:52;;;;;;;39.35;30.00;;;19.50;99.90;;;;;;2496092;23;20429;-74
2023/08/18 03:11:53;;;;;;;37.63;29.77;;;19.40;99.90;;;;;;2494377;23;20007;-74
2023/08/18 03:12:53;;;;;;;39.35;28.85;;;19.50;99.90;;;;;;2494963;23;20007;-74
2023/08/18 03:13:55;;;;;;;35.17;27.30;;;19.50;99.90;;;;;;2495811;23;20007;-74
2023/08/18 03:14:55;;;;;;;37.80;27.05;;;19.50;99.90;;;;;;2495483;23;20083;-74
2023/08/18 03:15:56;;;;;;;34.60;28.15;;;19.50;99.90;;;;;;2495946;23;20014;-74
2023/08/18 03:16:56;;;;;;;35.95;29.08;;;19.50;99.90;;;;;;2494907;23;20007;-74
2023/08/18 03:17:57;;;;;;;32.90;27.50;;;19.50;99.90;;;;;;2495117;23;20014;-74
2023/08/18 03:18:58;;;;;;;32.72;26.23;;;19.50;99.90;;;;;;2495734;23;20023;-74
2023/08/18 03:19:58;;;;;;;32.55;26.50;;;19.50;99.90;;;;;;2495378;23;20053;-74
2023/08/18 03:21:00;;;;;;;33.53;27.48;;;19.50;99.90;;;;;;2494289;23;20010;-74
2023/08/18 03:22:00;;;;;;;32.92;26.80;;;19.50;99.90;;;;;;2495620;23;20006;-74
2023/08/18 03:23:01;;;;;;;32.97;27.52;;;19.50;99.90;;;;;;2494116;23;20336;-74
2023/08/18 03:24:02;;;;;;;31.88;26.23;;;19.50;99.90;;;;;;2495185;23;20003;-74
2023/08/18 03:25:03;;;;;;;31.40;25.95;;;19.50;99.90;;;;;;2494771;23;20064;-74
2023/08/18 03:26:05;;;;;;;35.22;26.50;;;19.50;99.90;;;;;;2494672;23;19999;-74
2023/08/18 03:27:06;;;;;;;31.48;25.75;;;19.50;99.90;;;;;;2496132;23;20003;-74
2023/08/18 03:28:07;;;;;;;31.63;25.33;;;19.50;99.90;;;;;;2495509;23;20015;-74
2023/08/18 03:29:07;;;;;;;30.10;24.88;;;19.50;99.90;;;;;;2496090;23;20335;-74
2023/08/18 03:30:08;;;;;;;28.48;23.67;;;19.50;99.90;;;;;;2495079;23;20046;-74
2023/08/18 03:31:09;;;;;;;28.98;23.83;;;19.60;99.90;;;;;;2495936;23;20006;-74
2023/08/18 03:32:10;;;;;;;30.55;24.55;;;19.50;99.90;;;;;;2494936;23;20339;-74
2023/08/18 03:33:11;;;;;;;28.75;23.63;;;19.50;99.90;;;;;;2495602;23;20023;-74
2023/08/18 03:34:11;;;;;;;28.60;24.48;;;19.50;99.90;;;;;;2495517;23;20071;-74
2023/08/18 03:35:12;;;;;;;28.08;23.05;;;19.50;99.90;;;;;;2494623;23;20086;-74
2023/08/18 03:36:12;;;;;;;27.73;23.67;;;19.50;99.90;;;;;;2494967;23;20336;-75
2023/08/18 03:37:13;;;;;;;27.73;22.55;;;19.50;99.90;;;;;;2494398;23;20404;-74
2023/08/18 03:38:13;;;;;;;31.92;24.42;;;19.50;99.90;;;;;;2494402;23;20007;-74
2023/08/18 03:39:14;;;;;;;27.52;23.00;;;19.50;99.90;;;;;;2495095;23;20412;-74
2023/08/18 03:40:14;;;;;;;27.17;21.95;;;19.50;99.90;;;;;;2494543;23;20015;-73
2023/08/18 03:41:15;;;;;;;24.42;21.75;;;19.50;99.90;;;;;;2496066;23;20038;-74
2023/08/18 03:42:16;;;;;;;25.92;22.13;;;19.40;99.90;;;;;;2494954;23;20083;-74
2023/08/18 03:43:17;;;;;;;24.23;20.45;;;19.40;99.90;;;;;;2494436;23;20448;-74
2023/08/18 03:44:17;;;;;;;23.80;21.23;;;19.50;99.90;;;;;;2493987;23;20014;-74
2023/08/18 03:45:18;;;;;;;26.10;21.45;;;19.40;99.90;;;;;;2495160;23;20011;-74
2023/08/18 03:46:25;;;;;;;23.10;20.60;;;19.40;99.90;;;;;;2495689;23;20007;-74
2023/08/18 03:47:25;;;;;;;25.05;20.75;;;19.50;99.90;;;;;;2495891;23;20007;-74
2023/08/18 03:48:27;;;;;;;24.63;20.40;;;19.50;99.90;;;;;;2495784;23;20014;-74
2023/08/18 03:49:27;;;;;;;25.80;21.40;;;19.40;99.90;;;;;;2495052;23;20444;-74
2023/08/18 03:50:28;;;;;;;25.10;21.17;;;19.40;99.90;;;;;;2495832;23;20385;-74
2023/08/18 03:51:28;;;;;;;26.48;20.30;;;19.40;99.90;;;;;;2496169;23;20086;-74
2023/08/18 03:52:29;;;;;;;27.90;21.30;;;19.40;99.90;;;;;;2495617;23;20070;-74
2023/08/18 03:53:29;;;;;;;24.10;21.17;;;19.40;99.90;;;;;;2495302;23;20373;-74
2023/08/18 03:54:30;;;;;;;23.67;20.55;;;19.40;99.90;;;;;;2495814;23;20016;-74
2023/08/18 03:55:31;;;;;;;23.98;20.60;;;19.40;99.90;;;;;;2483664;23;20514;-74
2023/08/18 03:56:31;;;;;;;27.95;22.02;;;19.50;99.90;;;;;;2484222;23;20028;-74
2023/08/18 03:57:32;;;;;;;25.00;21.88;;;19.40;99.90;;;;;;2495618;23;20015;-74
2023/08/18 03:58:33;;;;;;;25.90;20.60;;;19.40;99.90;;;;;;2495982;23;20055;-74
2023/08/18 03:59:33;;;;;;;27.83;20.88;;;19.40;99.90;;;;;;2495784;23;20007;-73
2023/08/18 04:00:34;;;;;;;25.58;21.98;;;19.40;99.90;;;;;;2495180;23;20301;-74
2023/08/18 04:01:34;;;;;;;25.75;21.00;;;19.40;99.90;;;;;;2495971;23;20003;-74
2023/08/18 04:02:35;;;;;;;28.17;22.50;;;19.40;99.90;;;;;;2495423;23;20013;-74
2023/08/18 04:03:38;;;;;;;28.10;23.35;;;19.40;99.90;;;;;;2496493;23;20625;-74
2023/08/18 04:04:38;;;;;;;26.50;22.30;;;19.40;99.90;;;;;;2495376;23;20142;-74
2023/08/18 04:05:45;;;;;;;26.48;23.00;;;19.40;99.90;;;;;;2484285;23;20004;-74
2023/08/18 04:06:45;;;;;;;24.60;20.77;;;19.40;99.90;;;;;;2484591;23;20109;-74
2023/08/18 04:07:46;;;;;;;26.25;21.30;;;19.30;99.90;;;;;;2496814;23;20066;-74
2023/08/18 04:08:47;;;;;;;27.05;22.02;;;19.30;99.90;;;;;;2494813;23;20336;-74
2023/08/18 04:09:47;;;;;;;29.77;22.90;;;19.30;99.90;;;;;;2495609;23;20011;-74
2023/08/18 04:10:48;;;;;;;30.67;23.20;;;19.30;99.90;;;;;;2495821;23;20013;-74
2023/08/18 04:11:48;;;;;;;32.13;23.92;;;19.30;99.90;;;;;;2483384;23;20154;-74
2023/08/18 04:12:49;;;;;;;28.80;23.38;;;19.30;99.90;;;;;;2483103;23;20016;-74
2023/08/18 04:13:49;;;;;;;29.00;24.40;;;19.30;99.90;;;;;;2495805;23;20011;-74
2023/08/18 04:14:50;;;;;;;29.67;23.40;;;19.30;99.90;;;;;;2494814;23;20046;-74
2023/08/18 04:15:51;;;;;;;29.63;24.52;;;19.30;99.90;;;;;;2495696;23;20376;-74
2023/08/18 04:16:51;;;;;;;30.33;24.48;;;19.30;99.90;;;;;;2493730;23;20014;-74
2023/08/18 04:17:52;;;;;;;32.38;25.52;;;19.30;99.90;;;;;;2495439;23;20011;-75
2023/08/18 04:18:52;;;;;;;33.85;26.35;;;19.40;99.90;;;;;;2495351;23;20340;-74
2023/08/18 04:19:53;;;;;;;31.80;25.40;;;19.40;99.90;;;;;;2495292;23;20003;-74
2023/08/18 04:20:54;;;;;;;32.88;26.40;;;19.30;99.90;;;;;;2495251;23;20010;-74
2023/08/18 04:21:54;;;;;;;35.40;28.48;;;19.30;99.90;;;;;;2495374;23;20706;-74
2023/08/18 04:22:55;;;;;;;35.83;29.38;;;19.30;99.90;;;;;;2494113;23;20011;-74
2023/08/18 04:23:56;;;;;;;33.05;26.67;;;19.30;99.90;;;;;;2495458;23;20051;-74
2023/08/18 04:24:57;;;;;;;34.60;27.00;;;19.30;99.90;;;;;;2495057;23;20003;-74
2023/08/18 04:25:57;;;;;;;33.75;28.02;;;19.30;99.90;;;;;;2494308;23;20087;-74
2023/08/18 04:27:01;;;;;;;37.55;28.77;;;19.30;99.90;;;;;;2481951;23;20008;-74
2023/08/18 04:28:01;;;;;;;30.70;25.05;;;19.30;99.90;;;;;;2483174;23;20356;-74
2023/08/18 04:29:02;;;;;;;34.33;27.70;;;19.30;99.90;;;;;;2494872;23;20025;-74
2023/08/18 04:30:03;;;;;;;37.22;28.73;;;19.30;99.90;;;;;;2495498;23;20004;-73
2023/08/18 04:31:04;;;;;;;30.95;26.63;;;19.30;99.90;;;;;;2495247;23;20341;-74
2023/08/18 04:32:05;;;;;;;32.97;25.52;;;19.30;99.90;;;;;;2494708;23;20011;-74
2023/08/18 04:33:06;;;;;;;29.00;24.70;;;19.30;99.90;;;;;;2495469;23;20030;-74
2023/08/18 04:34:07;;;;;;;30.60;25.00;;;19.30;99.90;;;;;;2495370;23;20444;-74
2023/08/18 04:35:08;;;;;;;27.70;23.85;;;19.30;99.90;;;;;;2494797;23;20000;-73
2023/08/18 04:36:08;;;;;;;31.73;25.85;;;19.30;99.90;;;;;;2495487;23;20440;-74
2023/08/18 04:37:09;;;;;;;33.50;26.95;;;19.30;99.90;;;;;;2482468;23;20012;-74
2023/08/18 04:38:12;;;;;;;29.85;24.40;;;19.20;99.90;;;;;;2482930;23;20023;-74
2023/08/18 04:39:13;;;;;;;28.85;25.65;;;19.20;99.90;;;;;;2495142;23;20010;-74
2023/08/18 04:40:13;;;;;;;30.65;24.10;;;19.30;99.90;;;;;;2494526;23;20016;-74
2023/08/18 04:41:14;;;;;;;26.30;22.67;;;19.20;99.90;;;;;;2494832;23;20010;-76
2023/08/18 04:42:14;;;;;;;25.95;23.08;;;19.20;99.90;;;;;;2494068;23;20539;-74
2023/08/18 04:43:15;;;;;;;24.55;21.50;;;19.20;99.90;;;;;;2495730;23;20019;-75
2023/08/18 04:44:15;;;;;;;24.50;21.90;;;19.20;99.90;;;;;;2496253;23;20086;-74
2023/08/18 04:45:16;;;;;;;25.50;22.75;;;19.20;99.90;;;;;;2494971;23;20015;-74
2023/08/18 04:46:17;;;;;;;25.98;23.17;;;19.20;99.90;;;;;;2495979;23;20003;-74
2023/08/18 04:47:17;;;;;;;28.10;23.25;;;19.20;99.90;;;;;;2496199;23;20413;-74
2023/08/18 04:48:19;;;;;;;25.45;22.08;;;19.20;99.90;;;;;;2495588;23;20004;-74
2023/08/18 04:49:19;;;;;;;28.38;23.90;;;19.20;99.90;;;;;;2494779;23;20011;-74
2023/08/18 04:50:20;;;;;;;27.83;23.73;;;19.20;99.90;;;;;;2494648;23;20007;-74
2023/08/18 04:51:21;;;;;;;29.20;24.85;;;19.20;99.90;;;;;;2494911;23;20034;-74
2023/08/18 04:52:23;;;;;;;29.67;23.65;;;19.30;99.90;;;;;;2495146;23;20003;-74
2023/08/18 04:53:23;;;;;;;28.10;24.40;;;19.30;99.90;;;;;;2495676;23;20008;-74
2023/08/18 04:54:24;;;;;;;30.67;25.70;;;19.30;99.90;;;;;;2495687;23;20045;-74
2023/08/18 04:55:25;;;;;;;29.30;24.75;;;19.30;99.90;;;;;;2495076;23;20358;-74
2023/08/18 04:56:25;;;;;;;30.58;24.17;;;19.30;99.90;;;;;;2495831;23;20003;-74
2023/08/18 04:57:26;;;;;;;31.42;26.35;;;19.30;99.90;;;;;;2495396;23;20420;-75
2023/08/18 04:58:26;;;;;;;30.27;25.58;;;19.30;99.90;;;;;;2494291;23;20082;-75
2023/08/18 04:59:27;;;;;;;31.08;25.08;;;19.30;99.90;;;;;;2495395;23;20003;-75
2023/08/18 05:00:28;;;;;;;27.98;24.23;;;19.30;99.90;;;;;;2495331;23;20014;-75
2023/08/18 05:01:29;;;;;;;27.73;23.58;;;19.30;99.90;;;;;;2494602;23;20003;-74
2023/08/18 05:02:29;;;;;;;26.85;23.30;;;19.30;99.90;;;;;;2495453;23;20007;-74
2023/08/18 05:03:30;;;;;;;28.08;23.45;;;19.30;99.90;;;;;;2495038;23;20110;-75
2023/08/18 05:04:31;;;;;;;31.65;23.73;;;19.30;99.90;;;;;;2494169;23;20055;-74
2023/08/18 05:05:34;;;;;;;27.58;23.38;;;19.30;99.90;;;;;;2494094;23;20013;-74
2023/08/18 05:06:34;;;;;;;24.83;22.20;;;19.30;99.90;;;;;;2495229;23;20388;-74
2023/08/18 05:07:35;;;;;;;29.35;24.02;;;19.30;99.90;;;;;;2495040;23;20004;-75
2023/08/18 05:08:36;;;;;;;28.80;24.80;;;19.30;99.90;;;;;;2494439;23;20042;-74
2023/08/18 05:09:37;;;;;;;29.02;24.73;;;19.30;99.90;;;;;;2482644;23;20584;-75
2023/08/18 05:10:38;;;;;;;28.75;24.77;;;19.20;99.90;;;;;;2482826;23;20360;-75